sensor_id;sensor_type;location;lat;lon;timestamp;P1;durP1;ratioP1;P2;durP2;ratioP2
67762;SDS011;54566;52.022;5.582;2022-12-18T00:01:20;71.85;;;24.38;;
67762;SDS011;54566;52.022;5.582;2022-12-18T00:03:46;74.68;;;23.40;;
67762;SDS011;54566;52.022;5.582;2022-12-18T00:06:13;73.47;;;25.42;;
67762;SDS011;54566;52.022;5.582;2022-12-18T00:08:40;68.72;;;23.90;;
67762;SDS011;54566;52.022;5.582;2022-12-18T00:11:07;72.75;;;24.45;;
67762;SDS011;54566;52.022;5.582;2022-12-18T00:13:34;67.03;;;23.48;;
67762;SDS011;54566;52.022;5.582;2022-12-18T00:16:04;69.72;;;23.70;;
67762;SDS011;54566;52.022;5.582;2022-12-18T00:18:31;75.55;;;25.67;;
67762;SDS011;54566;52.022;5.582;2022-12-18T00:21:01;68.40;;;24.10;;
67762;SDS011;54566;52.022;5.582;2022-12-18T00:23:28;82.55;;;26.30;;
67762;SDS011;54566;52.022;5.582;2022-12-18T00:25:54;70.72;;;25.70;;
67762;SDS011;54566;52.022;5.582;2022-12-18T00:28:20;71.45;;;24.92;;
67762;SDS011;54566;52.022;5.582;2022-12-18T00:30:46;75.50;;;26.90;;
67762;SDS011;54566;52.022;5.582;2022-12-18T00:33:17;69.57;;;25.25;;
67762;SDS011;54566;52.022;5.582;2022-12-18T00:35:44;70.55;;;25.23;;
67762;SDS011;54566;52.022;5.582;2022-12-18T00:38:10;76.95;;;24.58;;
67762;SDS011;54566;52.022;5.582;2022-12-18T00:40:36;71.22;;;26.70;;
67762;SDS011;54566;52.022;5.582;2022-12-18T00:43:02;66.07;;;25.45;;
67762;SDS011;54566;52.022;5.582;2022-12-18T00:45:33;70.80;;;25.98;;
67762;SDS011;54566;52.022;5.582;2022-12-18T00:47:59;67.40;;;24.15;;
67762;SDS011;54566;52.022;5.582;2022-12-18T00:50:25;61.10;;;23.10;;
67762;SDS011;54566;52.022;5.582;2022-12-18T00:52:51;71.38;;;24.08;;
67762;SDS011;54566;52.022;5.582;2022-12-18T00:55:18;59.30;;;22.60;;
67762;SDS011;54566;52.022;5.582;2022-12-18T00:57:44;59.45;;;23.52;;
67762;SDS011;54566;52.022;5.582;2022-12-18T01:00:11;66.72;;;23.65;;
67762;SDS011;54566;52.022;5.582;2022-12-18T01:02:42;66.53;;;24.77;;
67762;SDS011;54566;52.022;5.582;2022-12-18T01:05:09;65.15;;;24.08;;
67762;SDS011;54566;52.022;5.582;2022-12-18T01:07:37;69.45;;;25.90;;
67762;SDS011;54566;52.022;5.582;2022-12-18T01:10:03;63.35;;;24.90;;
67762;SDS011;54566;52.022;5.582;2022-12-18T01:12:29;67.30;;;23.60;;
67762;SDS011;54566;52.022;5.582;2022-12-18T01:14:55;71.10;;;24.88;;
67762;SDS011;54566;52.022;5.582;2022-12-18T01:17:21;66.20;;;24.83;;
67762;SDS011;54566;52.022;5.582;2022-12-18T01:19:47;64.32;;;22.35;;
67762;SDS011;54566;52.022;5.582;2022-12-18T01:22:13;58.78;;;22.00;;
67762;SDS011;54566;52.022;5.582;2022-12-18T01:24:40;60.40;;;23.08;;
67762;SDS011;54566;52.022;5.582;2022-12-18T01:27:06;66.55;;;22.85;;
67762;SDS011;54566;52.022;5.582;2022-12-18T01:29:34;62.25;;;22.35;;
67762;SDS011;54566;52.022;5.582;2022-12-18T01:32:00;61.65;;;23.35;;
67762;SDS011;54566;52.022;5.582;2022-12-18T01:34:26;63.70;;;23.92;;
67762;SDS011;54566;52.022;5.582;2022-12-18T01:36:52;61.65;;;23.20;;
67762;SDS011;54566;52.022;5.582;2022-12-18T01:39:19;57.65;;;21.67;;
67762;SDS011;54566;52.022;5.582;2022-12-18T01:41:45;56.88;;;23.00;;
67762;SDS011;54566;52.022;5.582;2022-12-18T01:52:32;60.78;;;23.08;;
67762;SDS011;54566;52.022;5.582;2022-12-18T01:54:59;53.55;;;21.33;;
67762;SDS011;54566;52.022;5.582;2022-12-18T01:57:26;62.35;;;23.02;;
67762;SDS011;54566;52.022;5.582;2022-12-18T01:59:52;55.15;;;21.75;;
67762;SDS011;54566;52.022;5.582;2022-12-18T02:02:20;58.72;;;21.23;;
67762;SDS011;54566;52.022;5.582;2022-12-18T02:04:46;55.30;;;21.80;;
67762;SDS011;54566;52.022;5.582;2022-12-18T02:09:48;52.30;;;21.90;;
67762;SDS011;54566;52.022;5.582;2022-12-18T02:12:27;57.55;;;22.02;;
67762;SDS011;54566;52.022;5.582;2022-12-18T02:14:59;55.92;;;21.30;;
67762;SDS011;54566;52.022;5.582;2022-12-18T02:17:39;52.33;;;21.83;;
67762;SDS011;54566;52.022;5.582;2022-12-18T02:20:18;55.28;;;22.88;;
67762;SDS011;54566;52.022;5.582;2022-12-18T02:23:00;54.88;;;20.13;;
67762;SDS011;54566;52.022;5.582;2022-12-18T02:28:23;53.10;;;20.60;;
67762;SDS011;54566;52.022;5.582;2022-12-18T02:30:51;50.10;;;19.00;;
67762;SDS011;54566;52.022;5.582;2022-12-18T02:33:21;56.45;;;20.48;;
67762;SDS011;54566;52.022;5.582;2022-12-18T02:35:51;48.67;;;20.00;;
67762;SDS011;54566;52.022;5.582;2022-12-18T02:38:20;49.45;;;19.77;;
67762;SDS011;54566;52.022;5.582;2022-12-18T02:40:46;53.22;;;20.80;;
67762;SDS011;54566;52.022;5.582;2022-12-18T02:43:15;59.22;;;20.40;;
67762;SDS011;54566;52.022;5.582;2022-12-18T02:45:52;53.60;;;20.70;;
67762;SDS011;54566;52.022;5.582;2022-12-18T02:48:18;50.20;;;19.10;;
67762;SDS011;54566;52.022;5.582;2022-12-18T02:50:51;57.40;;;20.02;;
67762;SDS011;54566;52.022;5.582;2022-12-18T03:01:15;49.78;;;19.20;;
67762;SDS011;54566;52.022;5.582;2022-12-18T03:03:52;47.72;;;19.00;;
67762;SDS011;54566;52.022;5.582;2022-12-18T03:06:29;53.05;;;18.88;;
67762;SDS011;54566;52.022;5.582;2022-12-18T03:08:58;51.00;;;19.48;;
67762;SDS011;54566;52.022;5.582;2022-12-18T03:11:25;47.05;;;18.55;;
67762;SDS011;54566;52.022;5.582;2022-12-18T03:14:12;51.63;;;17.88;;
67762;SDS011;54566;52.022;5.582;2022-12-18T03:19:08;46.25;;;18.55;;
67762;SDS011;54566;52.022;5.582;2022-12-18T03:21:41;46.70;;;17.60;;
67762;SDS011;54566;52.022;5.582;2022-12-18T03:24:08;44.15;;;17.98;;
67762;SDS011;54566;52.022;5.582;2022-12-18T03:26:35;42.38;;;17.23;;
67762;SDS011;54566;52.022;5.582;2022-12-18T03:29:24;50.35;;;19.38;;
67762;SDS011;54566;52.022;5.582;2022-12-18T03:31:49;49.45;;;18.10;;
67762;SDS011;54566;52.022;5.582;2022-12-18T03:34:17;45.67;;;18.27;;
67762;SDS011;54566;52.022;5.582;2022-12-18T03:36:45;40.08;;;17.23;;
67762;SDS011;54566;52.022;5.582;2022-12-18T03:39:11;44.17;;;16.90;;
67762;SDS011;54566;52.022;5.582;2022-12-18T03:41:44;38.80;;;17.23;;
67762;SDS011;54566;52.022;5.582;2022-12-18T03:44:14;40.72;;;17.48;;
67762;SDS011;54566;52.022;5.582;2022-12-18T03:46:57;38.05;;;15.60;;
67762;SDS011;54566;52.022;5.582;2022-12-18T03:49:32;40.33;;;15.90;;
67762;SDS011;54566;52.022;5.582;2022-12-18T03:52:02;35.25;;;15.88;;
67762;SDS011;54566;52.022;5.582;2022-12-18T03:54:29;37.60;;;16.02;;
67762;SDS011;54566;52.022;5.582;2022-12-18T03:57:02;41.55;;;17.30;;
67762;SDS011;54566;52.022;5.582;2022-12-18T03:59:30;36.97;;;15.60;;
67762;SDS011;54566;52.022;5.582;2022-12-18T04:01:57;42.60;;;16.30;;
67762;SDS011;54566;52.022;5.582;2022-12-18T04:06:52;35.25;;;15.90;;
67762;SDS011;54566;52.022;5.582;2022-12-18T04:09:19;46.15;;;17.48;;
67762;SDS011;54566;52.022;5.582;2022-12-18T04:11:45;38.40;;;16.23;;
67762;SDS011;54566;52.022;5.582;2022-12-18T04:14:12;38.38;;;16.40;;
67762;SDS011;54566;52.022;5.582;2022-12-18T04:16:38;36.08;;;15.18;;
67762;SDS011;54566;52.022;5.582;2022-12-18T04:19:04;39.80;;;16.05;;
67762;SDS011;54566;52.022;5.582;2022-12-18T04:21:30;34.13;;;15.18;;
67762;SDS011;54566;52.022;5.582;2022-12-18T04:23:56;39.42;;;15.63;;
67762;SDS011;54566;52.022;5.582;2022-12-18T04:26:22;38.33;;;15.05;;
67762;SDS011;54566;52.022;5.582;2022-12-18T04:28:48;30.85;;;14.25;;
67762;SDS011;54566;52.022;5.582;2022-12-18T04:31:14;35.80;;;14.02;;
67762;SDS011;54566;52.022;5.582;2022-12-18T04:33:40;38.80;;;15.73;;
67762;SDS011;54566;52.022;5.582;2022-12-18T04:36:08;38.65;;;14.98;;
67762;SDS011;54566;52.022;5.582;2022-12-18T04:38:34;34.58;;;15.10;;
67762;SDS011;54566;52.022;5.582;2022-12-18T04:41:00;31.23;;;13.95;;
67762;SDS011;54566;52.022;5.582;2022-12-18T04:43:26;39.28;;;14.90;;
67762;SDS011;54566;52.022;5.582;2022-12-18T04:45:52;34.97;;;13.40;;
67762;SDS011;54566;52.022;5.582;2022-12-18T04:48:21;32.10;;;13.43;;
67762;SDS011;54566;52.022;5.582;2022-12-18T04:50:47;32.13;;;14.05;;
67762;SDS011;54566;52.022;5.582;2022-12-18T04:53:14;31.65;;;14.32;;
67762;SDS011;54566;52.022;5.582;2022-12-18T04:55:40;28.65;;;13.18;;
67762;SDS011;54566;52.022;5.582;2022-12-18T04:58:06;32.70;;;13.13;;
67762;SDS011;54566;52.022;5.582;2022-12-18T05:00:32;31.35;;;13.27;;
67762;SDS011;54566;52.022;5.582;2022-12-18T05:03:00;32.00;;;12.88;;
67762;SDS011;54566;52.022;5.582;2022-12-18T05:05:26;32.72;;;13.98;;
67762;SDS011;54566;52.022;5.582;2022-12-18T05:07:52;27.80;;;14.15;;
67762;SDS011;54566;52.022;5.582;2022-12-18T05:10:18;30.70;;;13.00;;
67762;SDS011;54566;52.022;5.582;2022-12-18T05:12:44;33.28;;;14.52;;
67762;SDS011;54566;52.022;5.582;2022-12-18T05:15:37;31.17;;;12.63;;
67762;SDS011;54566;52.022;5.582;2022-12-18T05:18:03;30.80;;;12.50;;
67762;SDS011;54566;52.022;5.582;2022-12-18T05:20:29;29.05;;;13.65;;
67762;SDS011;54566;52.022;5.582;2022-12-18T05:22:55;27.27;;;11.93;;
67762;SDS011;54566;52.022;5.582;2022-12-18T05:25:23;34.10;;;13.38;;
67762;SDS011;54566;52.022;5.582;2022-12-18T05:27:50;33.67;;;12.63;;
67762;SDS011;54566;52.022;5.582;2022-12-18T05:30:16;34.28;;;13.77;;
67762;SDS011;54566;52.022;5.582;2022-12-18T05:32:42;28.42;;;12.00;;
67762;SDS011;54566;52.022;5.582;2022-12-18T05:35:09;34.17;;;12.77;;
67762;SDS011;54566;52.022;5.582;2022-12-18T05:37:35;27.70;;;12.88;;
67762;SDS011;54566;52.022;5.582;2022-12-18T05:40:02;28.40;;;12.40;;
67762;SDS011;54566;52.022;5.582;2022-12-18T05:42:28;29.17;;;12.13;;
67762;SDS011;54566;52.022;5.582;2022-12-18T05:44:55;29.83;;;13.88;;
67762;SDS011;54566;52.022;5.582;2022-12-18T05:47:21;29.27;;;13.63;;
67762;SDS011;54566;52.022;5.582;2022-12-18T05:49:47;27.27;;;12.60;;
67762;SDS011;54566;52.022;5.582;2022-12-18T05:52:13;28.92;;;14.15;;
67762;SDS011;54566;52.022;5.582;2022-12-18T05:54:39;30.65;;;13.57;;
67762;SDS011;54566;52.022;5.582;2022-12-18T05:57:05;25.55;;;12.43;;
67762;SDS011;54566;52.022;5.582;2022-12-18T05:59:31;25.98;;;11.18;;
67762;SDS011;54566;52.022;5.582;2022-12-18T06:01:57;27.35;;;12.73;;
67762;SDS011;54566;52.022;5.582;2022-12-18T06:04:23;30.13;;;12.15;;
67762;SDS011;54566;52.022;5.582;2022-12-18T06:06:49;30.45;;;13.50;;
67762;SDS011;54566;52.022;5.582;2022-12-18T06:09:15;26.15;;;12.93;;
67762;SDS011;54566;52.022;5.582;2022-12-18T06:11:41;28.65;;;13.25;;
67762;SDS011;54566;52.022;5.582;2022-12-18T06:14:08;29.35;;;13.45;;
67762;SDS011;54566;52.022;5.582;2022-12-18T06:16:34;25.67;;;12.07;;
67762;SDS011;54566;52.022;5.582;2022-12-18T06:19:04;32.65;;;12.93;;
67762;SDS011;54566;52.022;5.582;2022-12-18T06:21:31;28.43;;;11.70;;
67762;SDS011;54566;52.022;5.582;2022-12-18T06:23:57;25.02;;;11.70;;
67762;SDS011;54566;52.022;5.582;2022-12-18T06:26:24;26.85;;;11.77;;
67762;SDS011;54566;52.022;5.582;2022-12-18T06:28:50;31.13;;;12.27;;
67762;SDS011;54566;52.022;5.582;2022-12-18T06:31:16;25.98;;;12.68;;
67762;SDS011;54566;52.022;5.582;2022-12-18T06:33:42;26.00;;;12.35;;
67762;SDS011;54566;52.022;5.582;2022-12-18T06:36:09;26.10;;;13.32;;
67762;SDS011;54566;52.022;5.582;2022-12-18T06:38:36;28.85;;;12.20;;
67762;SDS011;54566;52.022;5.582;2022-12-18T06:41:12;29.17;;;11.63;;
67762;SDS011;54566;52.022;5.582;2022-12-18T06:43:38;25.85;;;12.20;;
67762;SDS011;54566;52.022;5.582;2022-12-18T06:46:04;30.30;;;10.95;;
67762;SDS011;54566;52.022;5.582;2022-12-18T06:48:31;21.30;;;10.65;;
67762;SDS011;54566;52.022;5.582;2022-12-18T06:50:57;23.13;;;11.05;;
67762;SDS011;54566;52.022;5.582;2022-12-18T06:53:23;31.63;;;12.40;;
67762;SDS011;54566;52.022;5.582;2022-12-18T06:55:49;32.35;;;12.00;;
67762;SDS011;54566;52.022;5.582;2022-12-18T06:58:16;23.98;;;11.52;;
67762;SDS011;54566;52.022;5.582;2022-12-18T07:00:42;30.73;;;12.48;;
67762;SDS011;54566;52.022;5.582;2022-12-18T07:03:08;30.13;;;12.98;;
67762;SDS011;54566;52.022;5.582;2022-12-18T07:05:34;30.70;;;11.95;;
67762;SDS011;54566;52.022;5.582;2022-12-18T07:08:04;21.38;;;10.98;;
67762;SDS011;54566;52.022;5.582;2022-12-18T07:10:31;23.88;;;10.85;;
67762;SDS011;54566;52.022;5.582;2022-12-18T07:12:59;31.42;;;13.05;;
67762;SDS011;54566;52.022;5.582;2022-12-18T07:15:26;27.67;;;12.90;;
67762;SDS011;54566;52.022;5.582;2022-12-18T07:17:52;29.35;;;11.23;;
67762;SDS011;54566;52.022;5.582;2022-12-18T07:20:19;25.00;;;11.32;;
67762;SDS011;54566;52.022;5.582;2022-12-18T07:22:45;24.08;;;11.90;;
67762;SDS011;54566;52.022;5.582;2022-12-18T07:25:12;27.95;;;12.35;;
67762;SDS011;54566;52.022;5.582;2022-12-18T07:27:38;26.77;;;11.32;;
67762;SDS011;54566;52.022;5.582;2022-12-18T07:30:05;26.50;;;13.13;;
67762;SDS011;54566;52.022;5.582;2022-12-18T07:32:31;24.65;;;12.20;;
67762;SDS011;54566;52.022;5.582;2022-12-18T07:34:57;24.95;;;11.27;;
67762;SDS011;54566;52.022;5.582;2022-12-18T07:37:23;26.95;;;11.07;;
67762;SDS011;54566;52.022;5.582;2022-12-18T07:39:49;25.25;;;11.45;;
67762;SDS011;54566;52.022;5.582;2022-12-18T07:42:15;27.27;;;11.88;;
67762;SDS011;54566;52.022;5.582;2022-12-18T07:44:57;24.48;;;11.57;;
67762;SDS011;54566;52.022;5.582;2022-12-18T07:47:23;27.65;;;13.20;;
67762;SDS011;54566;52.022;5.582;2022-12-18T07:49:49;28.08;;;12.40;;
67762;SDS011;54566;52.022;5.582;2022-12-18T07:52:15;28.05;;;12.60;;
67762;SDS011;54566;52.022;5.582;2022-12-18T07:54:41;27.05;;;11.98;;
67762;SDS011;54566;52.022;5.582;2022-12-18T07:57:07;29.52;;;13.02;;
67762;SDS011;54566;52.022;5.582;2022-12-18T07:59:34;25.20;;;11.43;;
67762;SDS011;54566;52.022;5.582;2022-12-18T08:02:00;28.23;;;11.70;;
67762;SDS011;54566;52.022;5.582;2022-12-18T08:04:26;32.67;;;12.32;;
67762;SDS011;54566;52.022;5.582;2022-12-18T08:06:52;25.45;;;12.25;;
67762;SDS011;54566;52.022;5.582;2022-12-18T08:09:18;28.05;;;12.63;;
67762;SDS011;54566;52.022;5.582;2022-12-18T08:11:44;26.90;;;12.27;;
67762;SDS011;54566;52.022;5.582;2022-12-18T08:14:10;27.75;;;12.45;;
67762;SDS011;54566;52.022;5.582;2022-12-18T08:16:36;26.10;;;12.32;;
67762;SDS011;54566;52.022;5.582;2022-12-18T08:19:03;28.83;;;11.60;;
67762;SDS011;54566;52.022;5.582;2022-12-18T08:21:29;24.65;;;12.15;;
67762;SDS011;54566;52.022;5.582;2022-12-18T08:23:57;25.05;;;12.30;;
67762;SDS011;54566;52.022;5.582;2022-12-18T08:26:24;25.75;;;12.70;;
67762;SDS011;54566;52.022;5.582;2022-12-18T08:28:50;24.95;;;11.90;;
67762;SDS011;54566;52.022;5.582;2022-12-18T08:31:17;26.65;;;11.93;;
67762;SDS011;54566;52.022;5.582;2022-12-18T08:33:44;22.20;;;11.98;;
67762;SDS011;54566;52.022;5.582;2022-12-18T08:36:10;26.65;;;10.88;;
67762;SDS011;54566;52.022;5.582;2022-12-18T08:38:37;20.80;;;10.05;;
67762;SDS011;54566;52.022;5.582;2022-12-18T08:41:07;21.85;;;11.27;;
67762;SDS011;54566;52.022;5.582;2022-12-18T08:43:33;20.98;;;11.40;;
67762;SDS011;54566;52.022;5.582;2022-12-18T08:46:18;23.50;;;10.52;;
67762;SDS011;54566;52.022;5.582;2022-12-18T08:48:47;25.58;;;12.57;;
67762;SDS011;54566;52.022;5.582;2022-12-18T08:51:15;27.73;;;11.73;;
67762;SDS011;54566;52.022;5.582;2022-12-18T08:53:42;21.47;;;10.43;;
67762;SDS011;54566;52.022;5.582;2022-12-18T08:56:09;21.83;;;10.98;;
67762;SDS011;54566;52.022;5.582;2022-12-18T08:58:35;20.88;;;11.18;;
67762;SDS011;54566;52.022;5.582;2022-12-18T09:01:02;21.95;;;10.40;;
67762;SDS011;54566;52.022;5.582;2022-12-18T09:03:29;21.42;;;10.57;;
67762;SDS011;54566;52.022;5.582;2022-12-18T09:05:55;24.83;;;10.77;;
67762;SDS011;54566;52.022;5.582;2022-12-18T09:08:21;26.73;;;11.60;;
67762;SDS011;54566;52.022;5.582;2022-12-18T09:10:47;20.98;;;10.55;;
67762;SDS011;54566;52.022;5.582;2022-12-18T09:13:14;16.33;;;9.82;;
67762;SDS011;54566;52.022;5.582;2022-12-18T09:15:41;19.08;;;10.00;;
67762;SDS011;54566;52.022;5.582;2022-12-18T09:18:08;20.45;;;10.20;;
67762;SDS011;54566;52.022;5.582;2022-12-18T09:20:34;21.95;;;9.82;;
67762;SDS011;54566;52.022;5.582;2022-12-18T09:23:09;19.10;;;9.73;;
67762;SDS011;54566;52.022;5.582;2022-12-18T09:25:36;16.98;;;8.88;;
67762;SDS011;54566;52.022;5.582;2022-12-18T09:28:03;19.85;;;9.98;;
67762;SDS011;54566;52.022;5.582;2022-12-18T09:30:29;19.25;;;9.93;;
67762;SDS011;54566;52.022;5.582;2022-12-18T09:32:58;20.20;;;10.88;;
67762;SDS011;54566;52.022;5.582;2022-12-18T09:35:24;21.48;;;10.23;;
67762;SDS011;54566;52.022;5.582;2022-12-18T09:37:51;21.52;;;10.32;;
67762;SDS011;54566;52.022;5.582;2022-12-18T09:40:18;19.48;;;9.85;;
67762;SDS011;54566;52.022;5.582;2022-12-18T09:42:45;22.67;;;9.90;;
67762;SDS011;54566;52.022;5.582;2022-12-18T09:45:14;23.33;;;10.38;;
67762;SDS011;54566;52.022;5.582;2022-12-18T09:47:41;23.80;;;9.93;;
67762;SDS011;54566;52.022;5.582;2022-12-18T09:50:25;18.52;;;9.27;;
67762;SDS011;54566;52.022;5.582;2022-12-18T09:52:54;22.02;;;9.55;;
67762;SDS011;54566;52.022;5.582;2022-12-18T09:55:32;16.85;;;9.48;;
67762;SDS011;54566;52.022;5.582;2022-12-18T10:00:44;20.98;;;9.52;;
67762;SDS011;54566;52.022;5.582;2022-12-18T10:03:11;20.48;;;9.75;;
67762;SDS011;54566;52.022;5.582;2022-12-18T10:08:24;18.15;;;9.73;;
67762;SDS011;54566;52.022;5.582;2022-12-18T10:10:56;16.15;;;8.88;;
67762;SDS011;54566;52.022;5.582;2022-12-18T10:21:43;20.15;;;9.45;;
67762;SDS011;54566;52.022;5.582;2022-12-18T10:24:02;19.65;;;8.75;;
67762;SDS011;54566;52.022;5.582;2022-12-18T10:26:29;21.20;;;9.43;;
67762;SDS011;54566;52.022;5.582;2022-12-18T10:28:57;18.27;;;8.77;;
67762;SDS011;54566;52.022;5.582;2022-12-18T10:31:24;17.02;;;8.50;;
67762;SDS011;54566;52.022;5.582;2022-12-18T10:33:50;19.45;;;9.00;;
67762;SDS011;54566;52.022;5.582;2022-12-18T10:36:16;18.80;;;9.10;;
67762;SDS011;54566;52.022;5.582;2022-12-18T10:38:42;14.20;;;7.85;;
67762;SDS011;54566;52.022;5.582;2022-12-18T10:43:52;19.90;;;8.90;;
67762;SDS011;54566;52.022;5.582;2022-12-18T10:46:35;16.90;;;8.35;;
67762;SDS011;54566;52.022;5.582;2022-12-18T10:49:01;20.67;;;9.35;;
67762;SDS011;54566;52.022;5.582;2022-12-18T10:51:32;20.13;;;9.00;;
67762;SDS011;54566;52.022;5.582;2022-12-18T10:53:59;20.25;;;8.73;;
67762;SDS011;54566;52.022;5.582;2022-12-18T10:56:27;17.75;;;8.32;;
67762;SDS011;54566;52.022;5.582;2022-12-18T10:59:00;21.08;;;9.57;;
67762;SDS011;54566;52.022;5.582;2022-12-18T11:01:26;17.67;;;8.73;;
67762;SDS011;54566;52.022;5.582;2022-12-18T11:06:20;16.35;;;8.30;;
67762;SDS011;54566;52.022;5.582;2022-12-18T11:09:59;19.33;;;10.35;;
67762;SDS011;54566;52.022;5.582;2022-12-18T11:11:49;19.95;;;8.68;;
67762;SDS011;54566;52.022;5.582;2022-12-18T11:15:02;20.08;;;8.90;;
67762;SDS011;54566;52.022;5.582;2022-12-18T11:17:03;14.90;;;8.07;;
67762;SDS011;54566;52.022;5.582;2022-12-18T11:22:20;17.00;;;8.90;;
67762;SDS011;54566;52.022;5.582;2022-12-18T11:27:39;17.75;;;8.93;;
67762;SDS011;54566;52.022;5.582;2022-12-18T11:30:07;19.27;;;8.60;;
67762;SDS011;54566;52.022;5.582;2022-12-18T11:32:37;19.13;;;8.93;;
67762;SDS011;54566;52.022;5.582;2022-12-18T11:37:33;20.70;;;10.68;;
67762;SDS011;54566;52.022;5.582;2022-12-18T11:40:11;18.98;;;10.07;;
67762;SDS011;54566;52.022;5.582;2022-12-18T11:42:44;18.10;;;9.60;;
67762;SDS011;54566;52.022;5.582;2022-12-18T11:48:14;21.02;;;9.48;;
67762;SDS011;54566;52.022;5.582;2022-12-18T11:54:00;20.88;;;9.43;;
67762;SDS011;54566;52.022;5.582;2022-12-18T11:56:36;18.75;;;9.38;;
67762;SDS011;54566;52.022;5.582;2022-12-18T11:59:08;23.80;;;9.63;;
67762;SDS011;54566;52.022;5.582;2022-12-18T12:09:07;17.85;;;9.35;;
67762;SDS011;54566;52.022;5.582;2022-12-18T12:11:52;17.17;;;9.30;;
67762;SDS011;54566;52.022;5.582;2022-12-18T12:17:20;19.80;;;9.93;;
67762;SDS011;54566;52.022;5.582;2022-12-18T12:30:04;21.70;;;9.48;;
67762;SDS011;54566;52.022;5.582;2022-12-18T12:40:34;20.48;;;10.18;;
67762;SDS011;54566;52.022;5.582;2022-12-18T12:43:13;23.13;;;10.25;;
67762;SDS011;54566;52.022;5.582;2022-12-18T12:48:14;19.30;;;9.98;;
67762;SDS011;54566;52.022;5.582;2022-12-18T12:50:42;20.30;;;10.30;;
67762;SDS011;54566;52.022;5.582;2022-12-18T12:53:14;20.00;;;10.30;;
67762;SDS011;54566;52.022;5.582;2022-12-18T12:55:41;19.23;;;9.48;;
67762;SDS011;54566;52.022;5.582;2022-12-18T12:58:13;17.02;;;9.38;;
67762;SDS011;54566;52.022;5.582;2022-12-18T13:01:04;18.35;;;9.98;;
67762;SDS011;54566;52.022;5.582;2022-12-18T13:09:01;29.95;;;10.35;;
67762;SDS011;54566;52.022;5.582;2022-12-18T13:11:32;20.20;;;9.43;;
67762;SDS011;54566;52.022;5.582;2022-12-18T13:14:32;22.90;;;10.40;;
67762;SDS011;54566;52.022;5.582;2022-12-18T13:19:44;19.08;;;9.00;;
67762;SDS011;54566;52.022;5.582;2022-12-18T13:22:24;20.15;;;10.35;;
67762;SDS011;54566;52.022;5.582;2022-12-18T13:24:53;17.20;;;9.30;;
67762;SDS011;54566;52.022;5.582;2022-12-18T13:30:19;20.90;;;9.98;;
67762;SDS011;54566;52.022;5.582;2022-12-18T13:33:12;20.70;;;10.85;;
67762;SDS011;54566;52.022;5.582;2022-12-18T13:35:38;21.75;;;10.38;;
67762;SDS011;54566;52.022;5.582;2022-12-18T13:48:17;23.23;;;9.95;;
67762;SDS011;54566;52.022;5.582;2022-12-18T13:50:48;19.80;;;9.82;;
67762;SDS011;54566;52.022;5.582;2022-12-18T13:53:23;68.43;;;11.43;;
67762;SDS011;54566;52.022;5.582;2022-12-18T13:55:50;18.85;;;10.02;;
67762;SDS011;54566;52.022;5.582;2022-12-18T13:58:16;22.27;;;9.93;;
67762;SDS011;54566;52.022;5.582;2022-12-18T14:00:43;17.67;;;9.48;;
67762;SDS011;54566;52.022;5.582;2022-12-18T14:03:42;17.05;;;9.48;;
67762;SDS011;54566;52.022;5.582;2022-12-18T14:06:03;20.52;;;10.07;;
67762;SDS011;54566;52.022;5.582;2022-12-18T14:08:32;19.30;;;9.88;;
67762;SDS011;54566;52.022;5.582;2022-12-18T14:10:59;18.95;;;9.65;;
67762;SDS011;54566;52.022;5.582;2022-12-18T14:13:28;19.10;;;10.15;;
67762;SDS011;54566;52.022;5.582;2022-12-18T14:15:54;21.98;;;9.95;;
67762;SDS011;54566;52.022;5.582;2022-12-18T14:18:25;20.65;;;10.70;;
67762;SDS011;54566;52.022;5.582;2022-12-18T14:20:56;21.23;;;10.68;;
67762;SDS011;54566;52.022;5.582;2022-12-18T14:23:37;25.13;;;10.85;;
67762;SDS011;54566;52.022;5.582;2022-12-18T14:26:19;20.40;;;10.88;;
67762;SDS011;54566;52.022;5.582;2022-12-18T14:28:45;23.40;;;10.57;;
67762;SDS011;54566;52.022;5.582;2022-12-18T14:34:03;21.95;;;10.75;;
67762;SDS011;54566;52.022;5.582;2022-12-18T14:36:29;21.30;;;10.95;;
67762;SDS011;54566;52.022;5.582;2022-12-18T14:38:56;23.45;;;10.70;;
67762;SDS011;54566;52.022;5.582;2022-12-18T14:41:23;21.55;;;10.80;;
67762;SDS011;54566;52.022;5.582;2022-12-18T14:43:51;23.73;;;11.27;;
67762;SDS011;54566;52.022;5.582;2022-12-18T14:48:58;22.25;;;10.52;;
67762;SDS011;54566;52.022;5.582;2022-12-18T14:51:29;22.70;;;11.13;;
67762;SDS011;54566;52.022;5.582;2022-12-18T14:53:57;20.10;;;10.35;;
67762;SDS011;54566;52.022;5.582;2022-12-18T14:56:36;23.80;;;10.65;;
67762;SDS011;54566;52.022;5.582;2022-12-18T14:59:06;21.65;;;11.38;;
67762;SDS011;54566;52.022;5.582;2022-12-18T15:01:45;21.60;;;11.68;;
67762;SDS011;54566;52.022;5.582;2022-12-18T15:07:38;26.48;;;11.23;;
67762;SDS011;54566;52.022;5.582;2022-12-18T15:12:32;21.70;;;10.95;;
67762;SDS011;54566;52.022;5.582;2022-12-18T15:14:59;19.23;;;10.20;;
67762;SDS011;54566;52.022;5.582;2022-12-18T15:17:25;23.73;;;11.70;;
67762;SDS011;54566;52.022;5.582;2022-12-18T15:19:52;20.38;;;11.18;;
67762;SDS011;54566;52.022;5.582;2022-12-18T15:22:24;20.13;;;10.73;;
67762;SDS011;54566;52.022;5.582;2022-12-18T15:24:50;23.70;;;11.40;;
67762;SDS011;54566;52.022;5.582;2022-12-18T15:27:21;23.75;;;12.35;;
67762;SDS011;54566;52.022;5.582;2022-12-18T15:29:59;18.80;;;11.05;;
67762;SDS011;54566;52.022;5.582;2022-12-18T15:32:25;22.77;;;11.45;;
67762;SDS011;54566;52.022;5.582;2022-12-18T15:35:01;30.05;;;12.55;;
67762;SDS011;54566;52.022;5.582;2022-12-18T15:37:30;24.65;;;12.07;;
67762;SDS011;54566;52.022;5.582;2022-12-18T15:39:56;24.35;;;12.27;;
67762;SDS011;54566;52.022;5.582;2022-12-18T15:42:22;23.92;;;11.85;;
67762;SDS011;54566;52.022;5.582;2022-12-18T15:45:08;24.52;;;12.02;;
67762;SDS011;54566;52.022;5.582;2022-12-18T15:47:36;21.63;;;11.43;;
67762;SDS011;54566;52.022;5.582;2022-12-18T15:50:02;24.95;;;12.57;;
67762;SDS011;54566;52.022;5.582;2022-12-18T15:52:28;24.48;;;12.05;;
67762;SDS011;54566;52.022;5.582;2022-12-18T15:54:54;29.17;;;12.63;;
67762;SDS011;54566;52.022;5.582;2022-12-18T15:57:39;29.95;;;13.25;;
67762;SDS011;54566;52.022;5.582;2022-12-18T16:00:05;25.67;;;12.55;;
67762;SDS011;54566;52.022;5.582;2022-12-18T16:02:32;26.42;;;12.40;;
67762;SDS011;54566;52.022;5.582;2022-12-18T16:04:58;25.73;;;12.80;;
67762;SDS011;54566;52.022;5.582;2022-12-18T16:07:24;27.25;;;13.18;;
67762;SDS011;54566;52.022;5.582;2022-12-18T16:09:50;29.60;;;13.93;;
67762;SDS011;54566;52.022;5.582;2022-12-18T16:12:18;27.33;;;12.25;;
67762;SDS011;54566;52.022;5.582;2022-12-18T16:14:44;31.40;;;13.80;;
67762;SDS011;54566;52.022;5.582;2022-12-18T16:17:11;31.02;;;14.05;;
67762;SDS011;54566;52.022;5.582;2022-12-18T16:19:37;30.63;;;14.07;;
67762;SDS011;54566;52.022;5.582;2022-12-18T16:22:03;28.73;;;14.20;;
67762;SDS011;54566;52.022;5.582;2022-12-18T16:24:31;26.83;;;12.65;;
67762;SDS011;54566;52.022;5.582;2022-12-18T16:26:58;28.90;;;12.48;;
67762;SDS011;54566;52.022;5.582;2022-12-18T16:29:25;28.80;;;13.40;;
67762;SDS011;54566;52.022;5.582;2022-12-18T16:38:05;28.35;;;12.38;;
67762;SDS011;54566;52.022;5.582;2022-12-18T16:40:32;27.38;;;13.52;;
67762;SDS011;54566;52.022;5.582;2022-12-18T16:42:58;24.40;;;13.13;;